sensor_id;sensor_type;location;lat;lon;timestamp;P1;durP1;ratioP1;P2;durP2;ratioP2
79348;SDS011;68817;48.110;11.660;2024-01-27T00:01:32;4.20;;;1.23;;
79348;SDS011;68817;48.110;11.660;2024-01-27T00:04:10;6.30;;;1.48;;
79348;SDS011;68817;48.110;11.660;2024-01-27T00:06:36;2.13;;;1.30;;
79348;SDS011;68817;48.110;11.660;2024-01-27T00:09:02;5.47;;;1.27;;
79348;SDS011;68817;48.110;11.660;2024-01-27T00:11:28;6.35;;;1.30;;
79348;SDS011;68817;48.110;11.660;2024-01-27T00:13:53;4.78;;;1.52;;
79348;SDS011;68817;48.110;11.660;2024-01-27T00:16:18;3.83;;;1.63;;
79348;SDS011;68817;48.110;11.660;2024-01-27T00:18:45;2.80;;;1.42;;
79348;SDS011;68817;48.110;11.660;2024-01-27T00:21:10;6.45;;;1.63;;
79348;SDS011;68817;48.110;11.660;2024-01-27T00:23:36;3.25;;;1.70;;
79348;SDS011;68817;48.110;11.660;2024-01-27T00:26:01;4.00;;;1.95;;
79348;SDS011;68817;48.110;11.660;2024-01-27T00:28:27;4.15;;;1.90;;
79348;SDS011;68817;48.110;11.660;2024-01-27T00:30:52;4.70;;;1.95;;
79348;SDS011;68817;48.110;11.660;2024-01-27T00:33:19;6.03;;;2.63;;
79348;SDS011;68817;48.110;11.660;2024-01-27T00:35:44;5.00;;;2.20;;
79348;SDS011;68817;48.110;11.660;2024-01-27T00:38:09;5.78;;;2.28;;
79348;SDS011;68817;48.110;11.660;2024-01-27T00:40:35;3.78;;;1.98;;
79348;SDS011;68817;48.110;11.660;2024-01-27T00:43:03;4.65;;;1.95;;
79348;SDS011;68817;48.110;11.660;2024-01-27T00:45:31;7.05;;;2.05;;
79348;SDS011;68817;48.110;11.660;2024-01-27T00:47:57;3.58;;;1.73;;
79348;SDS011;68817;48.110;11.660;2024-01-27T00:50:22;4.15;;;2.00;;
79348;SDS011;68817;48.110;11.660;2024-01-27T00:52:48;7.80;;;1.70;;
79348;SDS011;68817;48.110;11.660;2024-01-27T00:55:13;6.43;;;2.13;;
79348;SDS011;68817;48.110;11.660;2024-01-27T00:57:39;5.43;;;2.20;;
79348;SDS011;68817;48.110;11.660;2024-01-27T01:00:05;4.85;;;2.17;;
79348;SDS011;68817;48.110;11.660;2024-01-27T01:02:31;6.15;;;1.90;;
79348;SDS011;68817;48.110;11.660;2024-01-27T01:04:57;5.38;;;2.40;;
79348;SDS011;68817;48.110;11.660;2024-01-27T01:07:22;4.15;;;2.00;;
79348;SDS011;68817;48.110;11.660;2024-01-27T01:09:48;6.45;;;2.22;;
79348;SDS011;68817;48.110;11.660;2024-01-27T01:12:16;6.43;;;2.50;;
79348;SDS011;68817;48.110;11.660;2024-01-27T01:14:42;6.45;;;2.33;;
79348;SDS011;68817;48.110;11.660;2024-01-27T01:17:08;4.25;;;2.25;;
79348;SDS011;68817;48.110;11.660;2024-01-27T01:19:33;4.63;;;2.25;;
79348;SDS011;68817;48.110;11.660;2024-01-27T01:21:59;3.60;;;1.95;;
79348;SDS011;68817;48.110;11.660;2024-01-27T01:24:24;3.33;;;1.50;;
79348;SDS011;68817;48.110;11.660;2024-01-27T01:26:50;3.55;;;1.50;;
79348;SDS011;68817;48.110;11.660;2024-01-27T01:29:15;2.85;;;1.42;;
79348;SDS011;68817;48.110;11.660;2024-01-27T01:31:41;3.95;;;1.73;;
79348;SDS011;68817;48.110;11.660;2024-01-27T01:34:08;2.78;;;1.40;;
79348;SDS011;68817;48.110;11.660;2024-01-27T01:36:33;7.40;;;1.50;;
79348;SDS011;68817;48.110;11.660;2024-01-27T01:38:58;4.88;;;1.50;;
79348;SDS011;68817;48.110;11.660;2024-01-27T01:41:24;3.33;;;1.40;;
79348;SDS011;68817;48.110;11.660;2024-01-27T01:43:49;3.38;;;1.27;;
79348;SDS011;68817;48.110;11.660;2024-01-27T01:46:15;2.45;;;1.70;;
79348;SDS011;68817;48.110;11.660;2024-01-27T01:48:40;3.08;;;1.67;;
79348;SDS011;68817;48.110;11.660;2024-01-27T01:51:05;4.82;;;1.50;;
79348;SDS011;68817;48.110;11.660;2024-01-27T01:53:31;5.80;;;1.65;;
79348;SDS011;68817;48.110;11.660;2024-01-27T01:55:56;3.40;;;1.60;;
79348;SDS011;68817;48.110;11.660;2024-01-27T01:58:22;2.50;;;1.55;;
79348;SDS011;68817;48.110;11.660;2024-01-27T02:00:47;4.03;;;1.92;;
79348;SDS011;68817;48.110;11.660;2024-01-27T02:03:13;2.80;;;1.40;;
79348;SDS011;68817;48.110;11.660;2024-01-27T02:05:39;2.90;;;1.52;;
79348;SDS011;68817;48.110;11.660;2024-01-27T02:08:05;3.20;;;1.35;;
79348;SDS011;68817;48.110;11.660;2024-01-27T02:10:30;3.78;;;1.35;;
79348;SDS011;68817;48.110;11.660;2024-01-27T02:13:01;3.00;;;1.30;;
79348;SDS011;68817;48.110;11.660;2024-01-27T02:15:46;3.50;;;1.60;;
79348;SDS011;68817;48.110;11.660;2024-01-27T02:18:12;2.72;;;1.25;;
79348;SDS011;68817;48.110;11.660;2024-01-27T02:20:38;5.55;;;1.50;;
79348;SDS011;68817;48.110;11.660;2024-01-27T02:23:04;2.75;;;1.20;;
79348;SDS011;68817;48.110;11.660;2024-01-27T02:25:33;2.28;;;1.10;;
79348;SDS011;68817;48.110;11.660;2024-01-27T02:27:58;4.68;;;1.30;;
79348;SDS011;68817;48.110;11.660;2024-01-27T02:30:24;4.68;;;1.20;;
79348;SDS011;68817;48.110;11.660;2024-01-27T02:32:49;5.43;;;1.08;;
79348;SDS011;68817;48.110;11.660;2024-01-27T02:35:15;2.72;;;1.08;;
79348;SDS011;68817;48.110;11.660;2024-01-27T02:37:41;2.55;;;1.30;;
79348;SDS011;68817;48.110;11.660;2024-01-27T02:40:07;2.10;;;1.30;;
79348;SDS011;68817;48.110;11.660;2024-01-27T02:42:34;6.82;;;1.63;;
79348;SDS011;68817;48.110;11.660;2024-01-27T02:44:59;2.33;;;1.35;;
79348;SDS011;68817;48.110;11.660;2024-01-27T02:47:25;3.88;;;1.27;;
79348;SDS011;68817;48.110;11.660;2024-01-27T02:49:50;2.20;;;1.30;;
79348;SDS011;68817;48.110;11.660;2024-01-27T02:52:16;4.80;;;1.40;;
79348;SDS011;68817;48.110;11.660;2024-01-27T02:54:41;3.13;;;1.63;;
79348;SDS011;68817;48.110;11.660;2024-01-27T02:57:06;1.75;;;1.23;;
79348;SDS011;68817;48.110;11.660;2024-01-27T02:59:32;4.32;;;1.30;;
79348;SDS011;68817;48.110;11.660;2024-01-27T03:02:01;6.45;;;1.60;;
79348;SDS011;68817;48.110;11.660;2024-01-27T03:04:39;2.78;;;1.27;;
79348;SDS011;68817;48.110;11.660;2024-01-27T03:07:05;3.45;;;1.17;;
79348;SDS011;68817;48.110;11.660;2024-01-27T03:09:31;3.42;;;1.30;;
79348;SDS011;68817;48.110;11.660;2024-01-27T03:11:57;2.08;;;1.13;;
79348;SDS011;68817;48.110;11.660;2024-01-27T03:14:22;1.38;;;1.02;;
79348;SDS011;68817;48.110;11.660;2024-01-27T03:16:47;2.55;;;1.23;;
79348;SDS011;68817;48.110;11.660;2024-01-27T03:19:13;3.75;;;1.30;;
79348;SDS011;68817;48.110;11.660;2024-01-27T03:21:38;2.63;;;1.00;;
79348;SDS011;68817;48.110;11.660;2024-01-27T03:24:04;3.85;;;1.20;;
79348;SDS011;68817;48.110;11.660;2024-01-27T03:26:29;2.90;;;1.45;;
79348;SDS011;68817;48.110;11.660;2024-01-27T03:28:55;4.10;;;1.17;;
79348;SDS011;68817;48.110;11.660;2024-01-27T03:31:20;2.17;;;1.08;;
79348;SDS011;68817;48.110;11.660;2024-01-27T03:33:45;5.95;;;1.77;;
79348;SDS011;68817;48.110;11.660;2024-01-27T03:36:11;3.28;;;1.20;;
79348;SDS011;68817;48.110;11.660;2024-01-27T03:38:38;2.33;;;1.40;;
79348;SDS011;68817;48.110;11.660;2024-01-27T03:41:04;2.83;;;1.08;;
79348;SDS011;68817;48.110;11.660;2024-01-27T03:43:30;2.58;;;1.45;;
79348;SDS011;68817;48.110;11.660;2024-01-27T03:45:56;5.30;;;1.38;;
79348;SDS011;68817;48.110;11.660;2024-01-27T03:48:22;4.72;;;1.17;;
79348;SDS011;68817;48.110;11.660;2024-01-27T03:50:47;6.18;;;1.65;;
79348;SDS011;68817;48.110;11.660;2024-01-27T03:53:13;2.63;;;1.30;;
79348;SDS011;68817;48.110;11.660;2024-01-27T03:55:38;2.13;;;1.45;;
79348;SDS011;68817;48.110;11.660;2024-01-27T03:58:04;1.92;;;1.10;;
79348;SDS011;68817;48.110;11.660;2024-01-27T04:00:29;5.00;;;1.17;;
79348;SDS011;68817;48.110;11.660;2024-01-27T04:02:58;2.33;;;1.10;;
79348;SDS011;68817;48.110;11.660;2024-01-27T04:05:26;3.58;;;1.25;;
79348;SDS011;68817;48.110;11.660;2024-01-27T04:07:53;6.35;;;1.65;;
79348;SDS011;68817;48.110;11.660;2024-01-27T04:10:18;2.92;;;1.00;;
79348;SDS011;68817;48.110;11.660;2024-01-27T04:12:44;4.72;;;1.38;;
79348;SDS011;68817;48.110;11.660;2024-01-27T04:15:10;1.75;;;1.00;;
79348;SDS011;68817;48.110;11.660;2024-01-27T04:17:36;4.32;;;0.90;;
79348;SDS011;68817;48.110;11.660;2024-01-27T04:20:02;3.38;;;1.10;;
79348;SDS011;68817;48.110;11.660;2024-01-27T04:22:27;5.63;;;1.83;;
79348;SDS011;68817;48.110;11.660;2024-01-27T04:24:53;3.67;;;1.10;;
79348;SDS011;68817;48.110;11.660;2024-01-27T04:27:19;2.45;;;1.15;;
79348;SDS011;68817;48.110;11.660;2024-01-27T04:29:44;3.30;;;1.17;;
79348;SDS011;68817;48.110;11.660;2024-01-27T04:32:10;3.33;;;1.27;;
79348;SDS011;68817;48.110;11.660;2024-01-27T04:34:36;3.22;;;1.27;;
79348;SDS011;68817;48.110;11.660;2024-01-27T04:37:01;4.60;;;1.20;;
79348;SDS011;68817;48.110;11.660;2024-01-27T04:39:26;3.35;;;1.52;;
79348;SDS011;68817;48.110;11.660;2024-01-27T04:41:52;3.28;;;1.25;;
79348;SDS011;68817;48.110;11.660;2024-01-27T04:44:17;4.28;;;1.25;;
79348;SDS011;68817;48.110;11.660;2024-01-27T04:46:45;3.58;;;1.25;;
79348;SDS011;68817;48.110;11.660;2024-01-27T04:49:10;2.00;;;1.25;;
79348;SDS011;68817;48.110;11.660;2024-01-27T04:51:36;3.45;;;1.17;;
79348;SDS011;68817;48.110;11.660;2024-01-27T04:54:02;2.25;;;1.38;;
79348;SDS011;68817;48.110;11.660;2024-01-27T04:56:27;6.57;;;1.30;;
79348;SDS011;68817;48.110;11.660;2024-01-27T04:58:52;1.98;;;1.15;;
79348;SDS011;68817;48.110;11.660;2024-01-27T05:01:18;4.63;;;1.70;;
79348;SDS011;68817;48.110;11.660;2024-01-27T05:03:43;3.03;;;1.30;;
79348;SDS011;68817;48.110;11.660;2024-01-27T05:06:10;3.78;;;1.33;;
79348;SDS011;68817;48.110;11.660;2024-01-27T05:08:35;3.17;;;1.30;;
79348;SDS011;68817;48.110;11.660;2024-01-27T05:11:00;5.00;;;1.40;;
79348;SDS011;68817;48.110;11.660;2024-01-27T05:13:26;3.78;;;1.10;;
79348;SDS011;68817;48.110;11.660;2024-01-27T05:15:51;4.25;;;1.20;;
79348;SDS011;68817;48.110;11.660;2024-01-27T05:18:17;4.68;;;1.33;;
79348;SDS011;68817;48.110;11.660;2024-01-27T05:20:42;4.25;;;1.08;;
79348;SDS011;68817;48.110;11.660;2024-01-27T05:23:08;3.05;;;1.35;;
79348;SDS011;68817;48.110;11.660;2024-01-27T05:25:33;3.05;;;1.25;;
79348;SDS011;68817;48.110;11.660;2024-01-27T05:27:58;2.85;;;1.75;;
79348;SDS011;68817;48.110;11.660;2024-01-27T05:30:24;3.17;;;1.20;;
79348;SDS011;68817;48.110;11.660;2024-01-27T05:32:49;3.10;;;1.33;;
79348;SDS011;68817;48.110;11.660;2024-01-27T05:35:15;2.55;;;1.23;;
79348;SDS011;68817;48.110;11.660;2024-01-27T05:37:40;4.32;;;1.35;;
79348;SDS011;68817;48.110;11.660;2024-01-27T05:40:06;3.05;;;1.40;;
79348;SDS011;68817;48.110;11.660;2024-01-27T05:42:32;3.10;;;1.70;;
79348;SDS011;68817;48.110;11.660;2024-01-27T05:44:57;2.17;;;1.30;;
79348;SDS011;68817;48.110;11.660;2024-01-27T05:47:23;2.00;;;1.20;;
79348;SDS011;68817;48.110;11.660;2024-01-27T05:49:48;1.73;;;1.00;;
79348;SDS011;68817;48.110;11.660;2024-01-27T05:52:14;2.92;;;1.35;;
79348;SDS011;68817;48.110;11.660;2024-01-27T05:54:39;2.47;;;1.45;;
79348;SDS011;68817;48.110;11.660;2024-01-27T05:57:06;2.50;;;1.38;;
79348;SDS011;68817;48.110;11.660;2024-01-27T05:59:32;8.43;;;1.55;;
79348;SDS011;68817;48.110;11.660;2024-01-27T06:01:57;2.85;;;1.60;;
79348;SDS011;68817;48.110;11.660;2024-01-27T06:04:23;3.60;;;1.40;;
79348;SDS011;68817;48.110;11.660;2024-01-27T06:06:48;5.03;;;1.30;;
79348;SDS011;68817;48.110;11.660;2024-01-27T06:09:13;3.72;;;1.40;;
79348;SDS011;68817;48.110;11.660;2024-01-27T06:11:39;2.50;;;1.40;;
79348;SDS011;68817;48.110;11.660;2024-01-27T06:14:04;5.72;;;1.65;;
79348;SDS011;68817;48.110;11.660;2024-01-27T06:16:30;4.78;;;1.83;;
79348;SDS011;68817;48.110;11.660;2024-01-27T06:18:55;3.80;;;1.63;;
79348;SDS011;68817;48.110;11.660;2024-01-27T06:21:21;2.35;;;1.45;;
79348;SDS011;68817;48.110;11.660;2024-01-27T06:23:46;4.88;;;2.53;;
79348;SDS011;68817;48.110;11.660;2024-01-27T06:26:12;3.65;;;1.58;;
79348;SDS011;68817;48.110;11.660;2024-01-27T06:28:38;3.90;;;1.60;;
79348;SDS011;68817;48.110;11.660;2024-01-27T06:31:04;3.67;;;1.33;;
79348;SDS011;68817;48.110;11.660;2024-01-27T06:33:29;7.32;;;1.70;;
79348;SDS011;68817;48.110;11.660;2024-01-27T06:35:55;5.03;;;1.60;;
79348;SDS011;68817;48.110;11.660;2024-01-27T06:38:20;5.88;;;1.55;;
79348;SDS011;68817;48.110;11.660;2024-01-27T06:40:46;7.05;;;1.63;;
79348;SDS011;68817;48.110;11.660;2024-01-27T06:43:12;2.88;;;1.50;;
79348;SDS011;68817;48.110;11.660;2024-01-27T06:45:38;3.42;;;1.50;;
79348;SDS011;68817;48.110;11.660;2024-01-27T06:48:04;4.32;;;1.98;;
79348;SDS011;68817;48.110;11.660;2024-01-27T06:50:31;4.40;;;1.80;;
79348;SDS011;68817;48.110;11.660;2024-01-27T06:52:56;3.45;;;1.73;;
79348;SDS011;68817;48.110;11.660;2024-01-27T06:55:21;6.90;;;1.75;;
79348;SDS011;68817;48.110;11.660;2024-01-27T06:57:47;4.43;;;1.95;;
79348;SDS011;68817;48.110;11.660;2024-01-27T07:00:12;4.68;;;1.80;;
79348;SDS011;68817;48.110;11.660;2024-01-27T07:02:39;3.58;;;1.58;;
79348;SDS011;68817;48.110;11.660;2024-01-27T07:05:07;3.65;;;1.98;;
79348;SDS011;68817;48.110;11.660;2024-01-27T07:07:33;3.10;;;1.80;;
79348;SDS011;68817;48.110;11.660;2024-01-27T07:09:58;7.63;;;2.00;;
79348;SDS011;68817;48.110;11.660;2024-01-27T07:12:23;4.30;;;1.70;;
79348;SDS011;68817;48.110;11.660;2024-01-27T07:14:49;4.10;;;2.00;;
79348;SDS011;68817;48.110;11.660;2024-01-27T07:17:15;4.82;;;1.80;;
79348;SDS011;68817;48.110;11.660;2024-01-27T07:19:40;3.35;;;2.22;;
79348;SDS011;68817;48.110;11.660;2024-01-27T07:22:05;2.53;;;1.60;;
79348;SDS011;68817;48.110;11.660;2024-01-27T07:24:31;3.10;;;1.30;;
79348;SDS011;68817;48.110;11.660;2024-01-27T07:26:56;3.47;;;1.67;;
79348;SDS011;68817;48.110;11.660;2024-01-27T07:29:23;3.40;;;1.98;;
79348;SDS011;68817;48.110;11.660;2024-01-27T07:31:49;6.88;;;1.80;;
79348;SDS011;68817;48.110;11.660;2024-01-27T07:34:15;3.00;;;1.70;;
79348;SDS011;68817;48.110;11.660;2024-01-27T07:36:40;6.43;;;1.95;;
79348;SDS011;68817;48.110;11.660;2024-01-27T07:39:06;9.02;;;1.52;;
79348;SDS011;68817;48.110;11.660;2024-01-27T07:41:31;5.43;;;1.65;;
79348;SDS011;68817;48.110;11.660;2024-01-27T07:44:42;4.40;;;1.75;;
79348;SDS011;68817;48.110;11.660;2024-01-27T07:47:10;3.25;;;1.90;;
79348;SDS011;68817;48.110;11.660;2024-01-27T07:49:35;3.95;;;1.77;;
79348;SDS011;68817;48.110;11.660;2024-01-27T07:52:00;5.10;;;1.83;;
79348;SDS011;68817;48.110;11.660;2024-01-27T07:54:26;5.95;;;2.35;;
79348;SDS011;68817;48.110;11.660;2024-01-27T07:56:51;2.72;;;2.00;;
79348;SDS011;68817;48.110;11.660;2024-01-27T07:59:17;3.15;;;1.85;;
79348;SDS011;68817;48.110;11.660;2024-01-27T08:01:43;4.28;;;2.47;;
79348;SDS011;68817;48.110;11.660;2024-01-27T08:04:08;5.35;;;1.88;;
79348;SDS011;68817;48.110;11.660;2024-01-27T08:06:34;4.25;;;2.28;;
79348;SDS011;68817;48.110;11.660;2024-01-27T08:08:59;2.50;;;1.90;;
79348;SDS011;68817;48.110;11.660;2024-01-27T08:11:25;6.40;;;2.67;;
79348;SDS011;68817;48.110;11.660;2024-01-27T08:13:51;3.60;;;1.92;;
79348;SDS011;68817;48.110;11.660;2024-01-27T08:16:17;4.78;;;2.25;;
79348;SDS011;68817;48.110;11.660;2024-01-27T08:18:42;5.15;;;2.40;;
79348;SDS011;68817;48.110;11.660;2024-01-27T08:21:09;3.03;;;1.80;;
79348;SDS011;68817;48.110;11.660;2024-01-27T08:23:35;3.50;;;1.73;;
79348;SDS011;68817;48.110;11.660;2024-01-27T08:26:01;4.05;;;1.73;;
79348;SDS011;68817;48.110;11.660;2024-01-27T08:28:26;3.83;;;1.92;;
79348;SDS011;68817;48.110;11.660;2024-01-27T08:30:52;6.53;;;2.35;;
79348;SDS011;68817;48.110;11.660;2024-01-27T08:33:17;3.97;;;2.03;;
79348;SDS011;68817;48.110;11.660;2024-01-27T08:35:43;6.72;;;2.63;;
79348;SDS011;68817;48.110;11.660;2024-01-27T08:38:08;4.40;;;2.50;;
79348;SDS011;68817;48.110;11.660;2024-01-27T08:40:34;5.55;;;2.53;;
79348;SDS011;68817;48.110;11.660;2024-01-27T08:43:03;5.55;;;2.60;;
79348;SDS011;68817;48.110;11.660;2024-01-27T08:45:29;8.68;;;2.45;;
79348;SDS011;68817;48.110;11.660;2024-01-27T08:47:54;5.65;;;2.83;;
79348;SDS011;68817;48.110;11.660;2024-01-27T08:50:20;4.25;;;2.65;;
79348;SDS011;68817;48.110;11.660;2024-01-27T08:52:46;6.40;;;2.22;;
79348;SDS011;68817;48.110;11.660;2024-01-27T08:55:12;14.23;;;2.47;;
79348;SDS011;68817;48.110;11.660;2024-01-27T08:57:37;6.43;;;2.53;;
79348;SDS011;68817;48.110;11.660;2024-01-27T09:00:03;7.47;;;2.92;;
79348;SDS011;68817;48.110;11.660;2024-01-27T09:02:28;7.70;;;3.35;;
79348;SDS011;68817;48.110;11.660;2024-01-27T09:04:54;4.32;;;2.45;;
79348;SDS011;68817;48.110;11.660;2024-01-27T09:07:20;6.78;;;2.55;;
79348;SDS011;68817;48.110;11.660;2024-01-27T09:09:45;7.20;;;2.67;;
79348;SDS011;68817;48.110;11.660;2024-01-27T09:12:11;6.72;;;2.67;;
79348;SDS011;68817;48.110;11.660;2024-01-27T09:14:36;5.15;;;2.45;;
79348;SDS011;68817;48.110;11.660;2024-01-27T09:17:02;6.30;;;2.97;;
79348;SDS011;68817;48.110;11.660;2024-01-27T09:19:27;7.00;;;2.53;;
79348;SDS011;68817;48.110;11.660;2024-01-27T09:21:53;7.10;;;2.65;;
79348;SDS011;68817;48.110;11.660;2024-01-27T09:24:18;6.82;;;3.05;;
79348;SDS011;68817;48.110;11.660;2024-01-27T09:26:44;7.93;;;2.60;;
79348;SDS011;68817;48.110;11.660;2024-01-27T09:29:09;5.85;;;2.67;;
79348;SDS011;68817;48.110;11.660;2024-01-27T09:31:35;4.95;;;2.90;;
79348;SDS011;68817;48.110;11.660;2024-01-27T09:34:00;4.35;;;2.60;;
79348;SDS011;68817;48.110;11.660;2024-01-27T09:36:26;5.68;;;2.53;;
79348;SDS011;68817;48.110;11.660;2024-01-27T09:38:51;6.65;;;2.08;;
79348;SDS011;68817;48.110;11.660;2024-01-27T09:41:17;5.63;;;2.85;;
79348;SDS011;68817;48.110;11.660;2024-01-27T09:43:44;9.88;;;2.95;;
79348;SDS011;68817;48.110;11.660;2024-01-27T09:46:13;10.43;;;3.53;;
79348;SDS011;68817;48.110;11.660;2024-01-27T09:48:41;5.20;;;2.80;;
79348;SDS011;68817;48.110;11.660;2024-01-27T09:51:08;4.65;;;2.85;;
79348;SDS011;68817;48.110;11.660;2024-01-27T09:53:34;6.93;;;3.03;;
79348;SDS011;68817;48.110;11.660;2024-01-27T09:55:59;7.18;;;2.80;;
79348;SDS011;68817;48.110;11.660;2024-01-27T09:58:27;4.43;;;2.38;;
79348;SDS011;68817;48.110;11.660;2024-01-27T10:00:57;5.47;;;2.58;;
79348;SDS011;68817;48.110;11.660;2024-01-27T10:03:27;6.38;;;2.65;;
79348;SDS011;68817;48.110;11.660;2024-01-27T10:05:54;8.38;;;2.70;;
79348;SDS011;68817;48.110;11.660;2024-01-27T10:08:20;6.05;;;2.80;;
79348;SDS011;68817;48.110;11.660;2024-01-27T10:10:47;7.85;;;2.92;;
79348;SDS011;68817;48.110;11.660;2024-01-27T10:13:13;7.72;;;2.63;;
79348;SDS011;68817;48.110;11.660;2024-01-27T10:15:39;4.65;;;2.40;;
79348;SDS011;68817;48.110;11.660;2024-01-27T10:18:08;8.93;;;3.17;;
79348;SDS011;68817;48.110;11.660;2024-01-27T10:20:34;5.80;;;2.20;;
79348;SDS011;68817;48.110;11.660;2024-01-27T10:22:59;6.78;;;2.50;;
79348;SDS011;68817;48.110;11.660;2024-01-27T10:28:08;6.10;;;2.38;;
79348;SDS011;68817;48.110;11.660;2024-01-27T10:30:34;6.40;;;2.30;;
79348;SDS011;68817;48.110;11.660;2024-01-27T10:32:59;5.15;;;3.28;;
79348;SDS011;68817;48.110;11.660;2024-01-27T10:35:25;8.55;;;2.70;;
79348;SDS011;68817;48.110;11.660;2024-01-27T10:37:53;4.63;;;2.42;;
79348;SDS011;68817;48.110;11.660;2024-01-27T10:40:19;6.57;;;2.67;;
79348;SDS011;68817;48.110;11.660;2024-01-27T10:42:45;6.30;;;2.47;;
79348;SDS011;68817;48.110;11.660;2024-01-27T10:45:11;7.13;;;2.55;;
79348;SDS011;68817;48.110;11.660;2024-01-27T10:47:38;7.30;;;2.55;;
79348;SDS011;68817;48.110;11.660;2024-01-27T10:50:04;7.53;;;2.45;;
79348;SDS011;68817;48.110;11.660;2024-01-27T10:52:34;7.32;;;2.60;;
79348;SDS011;68817;48.110;11.660;2024-01-27T10:55:03;6.63;;;2.58;;
79348;SDS011;68817;48.110;11.660;2024-01-27T10:57:32;5.78;;;2.22;;
79348;SDS011;68817;48.110;11.660;2024-01-27T11:00:00;7.75;;;2.55;;
79348;SDS011;68817;48.110;11.660;2024-01-27T11:04:57;5.68;;;2.17;;
79348;SDS011;68817;48.110;11.660;2024-01-27T11:07:23;5.20;;;2.10;;
79348;SDS011;68817;48.110;11.660;2024-01-27T11:09:49;7.22;;;2.65;;
79348;SDS011;68817;48.110;11.660;2024-01-27T11:12:21;5.25;;;2.28;;
79348;SDS011;68817;48.110;11.660;2024-01-27T11:14:47;6.05;;;2.25;;
79348;SDS011;68817;48.110;11.660;2024-01-27T11:17:14;6.32;;;2.67;;
79348;SDS011;68817;48.110;11.660;2024-01-27T11:19:44;6.38;;;2.83;;
79348;SDS011;68817;48.110;11.660;2024-01-27T11:22:29;5.10;;;2.22;;
79348;SDS011;68817;48.110;11.660;2024-01-27T11:25:08;6.43;;;2.15;;
79348;SDS011;68817;48.110;11.660;2024-01-27T11:27:40;5.93;;;2.50;;
79348;SDS011;68817;48.110;11.660;2024-01-27T11:30:06;6.22;;;2.40;;
79348;SDS011;68817;48.110;11.660;2024-01-27T11:32:41;7.00;;;2.35;;
79348;SDS011;68817;48.110;11.660;2024-01-27T11:35:06;5.40;;;2.17;;
79348;SDS011;68817;48.110;11.660;2024-01-27T11:37:32;4.20;;;2.13;;
79348;SDS011;68817;48.110;11.660;2024-01-27T11:40:04;4.18;;;2.17;;
79348;SDS011;68817;48.110;11.660;2024-01-27T11:42:34;4.93;;;2.35;;
79348;SDS011;68817;48.110;11.660;2024-01-27T11:45:00;6.65;;;2.65;;
79348;SDS011;68817;48.110;11.660;2024-01-27T11:47:25;6.57;;;2.33;;
79348;SDS011;68817;48.110;11.660;2024-01-27T11:49:51;6.32;;;2.40;;
79348;SDS011;68817;48.110;11.660;2024-01-27T11:52:22;7.07;;;2.28;;
79348;SDS011;68817;48.110;11.660;2024-01-27T11:54:58;3.58;;;2.05;;
79348;SDS011;68817;48.110;11.660;2024-01-27T11:57:24;5.22;;;2.00;;
79348;SDS011;68817;48.110;11.660;2024-01-27T11:59:50;7.97;;;2.40;;
79348;SDS011;68817;48.110;11.660;2024-01-27T12:02:16;4.18;;;2.25;;
79348;SDS011;68817;48.110;11.660;2024-01-27T12:04:42;5.57;;;2.33;;
79348;SDS011;68817;48.110;11.660;2024-01-27T12:07:07;5.50;;;2.20;;
79348;SDS011;68817;48.110;11.660;2024-01-27T12:09:35;5.78;;;2.10;;
79348;SDS011;68817;48.110;11.660;2024-01-27T12:12:01;4.47;;;2.17;;
79348;SDS011;68817;48.110;11.660;2024-01-27T12:14:37;6.32;;;1.90;;
79348;SDS011;68817;48.110;11.660;2024-01-27T12:17:08;3.70;;;1.60;;
79348;SDS011;68817;48.110;11.660;2024-01-27T12:19:34;4.43;;;1.63;;
79348;SDS011;68817;48.110;11.660;2024-01-27T12:22:00;4.65;;;2.22;;
79348;SDS011;68817;48.110;11.660;2024-01-27T12:24:25;6.28;;;1.85;;
79348;SDS011;68817;48.110;11.660;2024-01-27T12:26:51;4.75;;;1.92;;
79348;SDS011;68817;48.110;11.660;2024-01-27T12:29:16;3.72;;;1.73;;
79348;SDS011;68817;48.110;11.660;2024-01-27T12:31:44;7.78;;;2.55;;
79348;SDS011;68817;48.110;11.660;2024-01-27T12:34:10;5.50;;;2.03;;
79348;SDS011;68817;48.110;11.660;2024-01-27T12:36:40;6.28;;;2.30;;
79348;SDS011;68817;48.110;11.660;2024-01-27T12:39:06;6.75;;;1.83;;
79348;SDS011;68817;48.110;11.660;2024-01-27T12:41:31;4.03;;;1.85;;
79348;SDS011;68817;48.110;11.660;2024-01-27T12:43:59;6.15;;;2.10;;
79348;SDS011;68817;48.110;11.660;2024-01-27T12:46:24;3.28;;;1.83;;
79348;SDS011;68817;48.110;11.660;2024-01-27T12:48:49;4.05;;;1.65;;
79348;SDS011;68817;48.110;11.660;2024-01-27T12:51:15;6.80;;;2.03;;
79348;SDS011;68817;48.110;11.660;2024-01-27T12:53:41;10.68;;;2.35;;
79348;SDS011;68817;48.110;11.660;2024-01-27T12:56:12;4.57;;;2.08;;
79348;SDS011;68817;48.110;11.660;2024-01-27T13:01:05;7.65;;;2.60;;
79348;SDS011;68817;48.110;11.660;2024-01-27T13:03:31;4.25;;;1.92;;
79348;SDS011;68817;48.110;11.660;2024-01-27T13:05:57;5.38;;;2.30;;
79348;SDS011;68817;48.110;11.660;2024-01-27T13:08:22;2.90;;;1.50;;
79348;SDS011;68817;48.110;11.660;2024-01-27T13:10:48;4.78;;;1.67;;
79348;SDS011;68817;48.110;11.660;2024-01-27T13:13:14;7.28;;;1.67;;
79348;SDS011;68817;48.110;11.660;2024-01-27T13:15:39;7.00;;;1.95;;
79348;SDS011;68817;48.110;11.660;2024-01-27T13:18:05;2.30;;;1.40;;
79348;SDS011;68817;48.110;11.660;2024-01-27T13:20:31;4.18;;;1.80;;
79348;SDS011;68817;48.110;11.660;2024-01-27T13:22:56;5.57;;;1.60;;
79348;SDS011;68817;48.110;11.660;2024-01-27T13:25:23;4.80;;;1.63;;
79348;SDS011;68817;48.110;11.660;2024-01-27T13:27:48;5.40;;;2.00;;
79348;SDS011;68817;48.110;11.660;2024-01-27T13:30:14;5.25;;;1.60;;
79348;SDS011;68817;48.110;11.660;2024-01-27T13:32:39;3.40;;;1.80;;
79348;SDS011;68817;48.110;11.660;2024-01-27T13:35:05;3.58;;;1.60;;
79348;SDS011;68817;48.110;11.660;2024-01-27T13:37:32;4.28;;;1.73;;
79348;SDS011;68817;48.110;11.660;2024-01-27T13:39:58;5.03;;;1.50;;
79348;SDS011;68817;48.110;11.660;2024-01-27T13:42:24;2.80;;;1.35;;
79348;SDS011;68817;48.110;11.660;2024-01-27T13:44:50;5.68;;;1.70;;
79348;SDS011;68817;48.110;11.660;2024-01-27T13:47:15;4.50;;;1.58;;
79348;SDS011;68817;48.110;11.660;2024-01-27T13:49:41;3.00;;;1.45;;
79348;SDS011;68817;48.110;11.660;2024-01-27T13:52:06;3.08;;;1.40;;
79348;SDS011;68817;48.110;11.660;2024-01-27T13:54:32;3.63;;;1.70;;
79348;SDS011;68817;48.110;11.660;2024-01-27T13:56:59;6.57;;;1.75;;
79348;SDS011;68817;48.110;11.660;2024-01-27T13:59:25;5.32;;;1.38;;
79348;SDS011;68817;48.110;11.660;2024-01-27T14:01:50;3.30;;;1.63;;
79348;SDS011;68817;48.110;11.660;2024-01-27T14:04:16;3.70;;;1.10;;
79348;SDS011;68817;48.110;11.660;2024-01-27T14:06:41;4.93;;;1.67;;
79348;SDS011;68817;48.110;11.660;2024-01-27T14:09:06;4.97;;;1.50;;
79348;SDS011;68817;48.110;11.660;2024-01-27T14:11:32;4.80;;;1.60;;
79348;SDS011;68817;48.110;11.660;2024-01-27T14:13:57;3.05;;;1.48;;
79348;SDS011;68817;48.110;11.660;2024-01-27T14:16:23;3.80;;;1.75;;
79348;SDS011;68817;48.110;11.660;2024-01-27T14:18:48;5.78;;;1.65;;
79348;SDS011;68817;48.110;11.660;2024-01-27T14:21:13;3.40;;;1.42;;
79348;SDS011;68817;48.110;11.660;2024-01-27T14:23:39;6.18;;;1.95;;
79348;SDS011;68817;48.110;11.660;2024-01-27T14:26:05;3.28;;;1.70;;
79348;SDS011;68817;48.110;11.660;2024-01-27T14:28:33;3.78;;;1.77;;
79348;SDS011;68817;48.110;11.660;2024-01-27T14:31:00;4.75;;;1.88;;
79348;SDS011;68817;48.110;11.660;2024-01-27T14:33:26;3.63;;;1.70;;
79348;SDS011;68817;48.110;11.660;2024-01-27T14:35:52;4.72;;;2.88;;